createdAt,value
2017-08-12T14:15:45.241Z,3.10
2017-08-12T14:18:12.892Z,2.90
2017-08-12T14:20:40.507Z,3.47
2017-08-12T14:23:08.265Z,3.73
2017-08-12T14:25:35.984Z,3.20
2017-08-12T14:28:04.371Z,3.43
2017-08-12T14:30:31.996Z,3.50
2017-08-12T14:32:59.667Z,4.17
2017-08-12T14:35:27.320Z,3.70
2017-08-12T14:37:55.404Z,4.30
2017-08-12T14:40:24.057Z,4.07
2017-08-12T14:42:51.853Z,4.03
2017-08-12T14:45:19.487Z,5.43
2017-08-12T14:47:47.260Z,4.33
2017-08-12T14:50:14.881Z,4.37
2017-08-12T14:52:42.492Z,3.63
2017-08-12T14:55:10.159Z,4.40
2017-08-12T14:57:38.437Z,4.27
2017-08-12T15:00:06.860Z,4.60
2017-08-12T15:02:34.528Z,4.03
2017-08-12T15:05:02.359Z,4.00
2017-08-12T15:07:29.971Z,4.10
2017-08-12T15:09:57.650Z,3.93
2017-08-12T15:12:25.696Z,4.40
2017-08-12T15:14:53.590Z,4.00
2017-08-12T15:17:21.597Z,4.03
2017-08-12T15:19:49.222Z,3.73
2017-08-12T15:22:16.869Z,4.37
2017-08-12T15:24:44.530Z,3.43
2017-08-12T15:27:12.148Z,3.30
2017-08-12T15:32:07.749Z,3.73
2017-08-12T15:34:35.367Z,3.70
2017-08-12T15:37:03.292Z,4.33
2017-08-12T15:39:30.970Z,4.13
2017-08-12T15:41:58.602Z,4.70
2017-08-12T15:44:26.229Z,4.40
2017-08-12T15:46:54.756Z,4.43
2017-08-12T15:49:22.787Z,4.37
2017-08-12T15:51:50.401Z,4.10
2017-08-12T15:54:18.068Z,4.73
2017-08-12T15:56:45.697Z,4.20
2017-08-12T15:59:13.490Z,4.43
2017-08-12T16:01:42.532Z,3.87
2017-08-12T16:04:10.347Z,4.20
2017-08-12T16:06:38.012Z,4.40
2017-08-12T16:09:05.679Z,4.73
2017-08-12T16:11:33.288Z,3.90
2017-08-12T16:14:00.907Z,3.87
2017-08-12T16:16:28.779Z,3.80
2017-08-12T16:18:56.622Z,4.10
2017-08-12T16:21:24.233Z,4.50
2017-08-12T16:23:51.941Z,4.33
2017-08-12T16:26:19.566Z,4.50
2017-08-12T16:28:48.269Z,4.57
2017-08-12T16:31:15.956Z,4.30
2017-08-12T16:33:43.577Z,4.30
2017-08-12T16:36:11.146Z,4.40
2017-08-12T16:38:39.055Z,4.47
2017-08-12T16:41:06.681Z,4.07
2017-08-12T16:43:34.584Z,4.90
2017-08-12T16:46:02.262Z,4.00
2017-08-12T16:48:30.116Z,5.07
2017-08-12T16:50:58.311Z,5.07
2017-08-12T16:53:26.706Z,5.50
2017-08-12T16:55:54.366Z,5.23
2017-08-12T16:58:22.058Z,5.70
2017-08-12T17:00:49.715Z,4.97
2017-08-12T17:03:17.361Z,4.50
2017-08-12T17:05:45.304Z,5.20
2017-08-12T17:08:12.938Z,6.03
2017-08-12T17:10:40.560Z,5.00
2017-08-12T17:13:09.218Z,5.40
2017-08-12T17:15:36.839Z,5.50
2017-08-12T17:18:04.454Z,5.63
2017-08-12T17:20:33.158Z,5.13
2017-08-12T17:23:01.545Z,5.23
2017-08-12T17:25:29.177Z,4.30
2017-08-12T17:27:56.844Z,4.87
2017-08-12T17:30:24.468Z,4.97
2017-08-12T17:32:52.110Z,4.60
2017-08-12T17:35:19.805Z,4.37
2017-08-12T17:37:48.081Z,4.37
2017-08-12T17:40:16.144Z,4.10
2017-08-12T17:42:43.819Z,4.50
2017-08-12T17:45:11.437Z,4.57
2017-08-12T17:47:39.820Z,4.50
2017-08-12T17:50:08.278Z,3.97
2017-08-12T17:52:35.896Z,5.07
2017-08-12T17:55:03.492Z,4.40
2017-08-12T17:57:31.760Z,4.30
2017-08-12T17:59:59.897Z,5.07
2017-08-12T18:02:27.648Z,4.40
2017-08-12T18:04:56.423Z,4.70
2017-08-12T18:07:24.316Z,5.13
2017-08-12T18:09:52.029Z,4.60
2017-08-12T18:12:19.752Z,4.10
2017-08-12T18:14:47.401Z,5.00
2017-08-12T18:17:16.017Z,5.10
2017-08-12T18:19:44.320Z,4.50
2017-08-12T18:22:12.134Z,4.57
2017-08-12T18:24:40.038Z,4.70
2017-08-12T18:27:07.807Z,4.50
2017-08-12T18:29:35.448Z,4.30
2017-08-12T18:32:03.088Z,4.43
2017-08-12T18:34:31.174Z,4.67
2017-08-12T18:36:58.869Z,4.03
2017-08-12T18:39:26.569Z,4.23
2017-08-12T18:41:55.039Z,5.00
2017-08-12T18:44:23.108Z,5.33
2017-08-12T18:46:51.015Z,4.60
2017-08-12T18:49:18.836Z,4.40
2017-08-12T18:51:46.675Z,4.73
2017-08-12T18:54:14.808Z,3.90
2017-08-12T18:56:42.466Z,4.60
2017-08-12T18:59:10.889Z,4.77
2017-08-12T19:01:38.581Z,4.47
2017-08-12T19:04:06.705Z,5.80
2017-08-12T19:06:35.078Z,4.57
2017-08-12T19:09:03.928Z,5.27
2017-08-12T19:11:31.775Z,8.50
2017-08-12T19:14:00.158Z,5.30
2017-08-12T19:16:27.825Z,5.07
2017-08-12T19:18:55.589Z,5.40
2017-08-12T19:21:23.513Z,5.70
2017-08-12T19:23:51.244Z,5.40
2017-08-12T19:26:19.991Z,4.40
2017-08-12T19:28:47.881Z,5.07
2017-08-12T19:31:15.569Z,4.83
2017-08-12T19:33:43.309Z,5.30
2017-08-12T19:36:11.929Z,4.90
2017-08-12T19:38:40.319Z,4.87
2017-08-12T19:41:08.976Z,5.70
2017-08-12T19:43:36.653Z,5.20
2017-08-12T19:46:04.328Z,5.40
2017-08-12T19:48:32.025Z,5.43
2017-08-12T19:50:59.977Z,5.37
2017-08-12T19:53:27.925Z,5.97
2017-08-12T19:55:55.888Z,5.70
2017-08-12T19:58:23.758Z,4.70
2017-08-12T20:00:51.515Z,5.73
2017-08-12T20:03:19.233Z,5.93
2017-08-12T20:05:47.774Z,5.93
2017-08-12T20:08:15.893Z,5.63
2017-08-12T20:10:44.490Z,5.90
2017-08-12T20:13:12.472Z,5.10
2017-08-12T20:15:40.142Z,6.00
2017-08-12T20:18:08.111Z,5.80
2017-08-12T20:20:35.782Z,4.50
2017-08-12T20:23:04.196Z,6.23
2017-08-12T20:25:32.128Z,5.60
2017-08-12T20:28:00.027Z,5.00
2017-08-12T20:30:28.521Z,5.73
2017-08-12T20:32:57.314Z,5.43
2017-08-12T20:35:25.125Z,4.60
2017-08-12T20:37:52.891Z,5.30
2017-08-12T20:40:20.595Z,5.50
2017-08-12T20:42:49.049Z,5.57
2017-08-12T20:45:16.805Z,6.57
2017-08-12T20:47:44.494Z,5.43
2017-08-12T20:50:12.112Z,6.80
2017-08-12T20:52:39.735Z,5.37
2017-08-12T20:55:08.779Z,6.57
2017-08-12T20:57:36.465Z,6.70
2017-08-12T21:00:04.118Z,5.47
2017-08-12T21:02:31.992Z,5.63
2017-08-12T21:04:59.759Z,5.47
2017-08-12T21:07:27.384Z,5.00
2017-08-12T21:09:55.293Z,5.83
2017-08-12T21:12:22.913Z,6.63
2017-08-12T21:14:50.742Z,7.27
2017-08-12T21:17:18.590Z,6.30
2017-08-12T21:19:47.285Z,7.10
2017-08-12T21:22:15.456Z,5.90
2017-08-12T21:24:44.140Z,6.20
2017-08-12T21:27:12.532Z,5.60
2017-08-12T21:29:41.080Z,5.30
2017-08-12T21:32:10.501Z,6.67
2017-08-12T21:34:39.760Z,6.23
2017-08-12T21:37:07.588Z,6.73
2017-08-12T21:39:35.659Z,6.27
2017-08-12T21:42:03.700Z,6.00
2017-08-12T21:44:32.755Z,6.40
2017-08-12T21:47:02.005Z,7.03
2017-08-12T21:49:30.778Z,5.90
2017-08-12T21:51:58.752Z,8.87
2017-08-12T21:54:27.832Z,6.73
2017-08-12T21:56:56.724Z,7.20
2017-08-12T21:59:25.777Z,7.10
2017-08-12T22:01:54.560Z,6.00
2017-08-12T22:04:23.666Z,7.10
2017-08-12T22:06:53.034Z,5.57
2017-08-12T22:09:21.786Z,5.80
2017-08-12T22:11:49.958Z,6.73
2017-08-12T22:14:18.389Z,6.37
2017-08-12T22:16:47.507Z,6.17
2017-08-12T22:19:15.770Z,6.07
2017-08-12T22:21:46.108Z,6.47
2017-08-12T22:24:14.485Z,5.90
2017-08-12T22:26:42.730Z,6.27
2017-08-12T22:29:11.879Z,6.50
2017-08-12T22:31:40.179Z,6.90
2017-08-12T22:34:08.002Z,6.60
2017-08-12T22:36:35.889Z,6.53
2017-08-12T22:39:04.766Z,6.27
2017-08-12T22:41:32.848Z,6.07
2017-08-12T22:44:00.919Z,6.83
2017-08-12T22:46:29.726Z,5.73
2017-08-12T22:48:57.965Z,6.53
2017-08-12T22:51:27.350Z,6.07
2017-08-12T22:53:55.299Z,5.80
2017-08-12T22:56:25.152Z,5.97
2017-08-12T22:58:54.183Z,5.53
2017-08-12T23:01:23.261Z,6.70
2017-08-12T23:03:51.587Z,5.50
2017-08-12T23:06:19.516Z,6.27
2017-08-12T23:08:48.413Z,6.53
2017-08-12T23:11:16.365Z,7.17
2017-08-12T23:13:44.835Z,7.50
2017-08-12T23:16:12.553Z,6.40
2017-08-12T23:18:40.375Z,6.20
2017-08-12T23:21:08.290Z,6.33
2017-08-12T23:23:36.072Z,7.07
2017-08-12T23:26:03.700Z,6.87
2017-08-12T23:28:31.336Z,7.80
2017-08-12T23:31:00.381Z,5.97
2017-08-12T23:33:28.001Z,6.30
2017-08-12T23:35:55.661Z,6.67
2017-08-12T23:38:23.330Z,7.90
2017-08-12T23:40:50.958Z,7.20
2017-08-12T23:43:19.236Z,8.20
2017-08-12T23:45:47.555Z,7.60
2017-08-12T23:48:15.173Z,6.80
2017-08-12T23:50:43.028Z,7.97
2017-08-12T23:53:10.776Z,8.90
2017-08-12T23:55:38.412Z,6.40
2017-08-12T23:58:06.166Z,6.77
